• Join FlightAware (Why Join?)
  • Login
  • US Flag 
09:56PM EDT


 

Airport Tracker/Info


-or-


 

Live Flight TrackerFlight Track Log ✈ ACA576 ✈ 02-May-2013 ✈ KLAS - CYUL

Flight Track Log - Related Links

Times and Time Zones

All times are in EDT time to prevent confusion due to time zone crossing. See the ACA576 flight status page for this flight to view local times or setup timezone preferences in your user account.

Time Position Orientation Groundspeed Altitude Reporting Facility
EDT Latitude Longitude Course Direction KTS MPH feet Rate Location/Type
02:40PM 36.0747 -115.1022 90° East 164 189 3,600  Level Los Angeles Center
02:40PM 36.0742 -115.0703 91° East 164 189 4,800 1,920 Climbing Los Angeles Center
02:41PM 36.0758 -114.9981 88° East 193 222 6,900 1,500 Climbing Los Angeles Center
02:42PM 36.0764 -114.9814 88° East 183 211 7,000 1,140 Climbing Los Angeles Center
02:43PM 36.1833 -114.5474 90° East  Level FlightAware Approximate
02:43PM 36.0833 -114.8908 85° East 255 293 8,500  Level Los Angeles Center
02:44PM 36.1833 -114.3900 90° East  Level FlightAware Approximate
02:44PM 36.0994 -114.8033 77° East 263 303 11,000  Level Los Angeles Center
02:45PM 36.1833 -114.2326 90° East  Level FlightAware Approximate
02:45PM 36.1217 -114.6722 78° East 323 372 13,200  Level Los Angeles Center
02:46PM 36.1419 -114.5536 78° East 348 400 15,600 2,160 Climbing Los Angeles Center
02:47PM 36.1633 -114.4281 78° East 366 421 17,700 1,740 Climbing Los Angeles Center
02:48PM 36.1842 -114.2975 79° East 382 440 19,200 1,680 Climbing Los Angeles Center
02:49PM 36.2056 -114.1603 79° East 399 459 21,200 1,800 Climbing Los Angeles Center
02:50PM 36.2200 -114.0186 83° East 411 473 23,000 1,740 Climbing Los Angeles Center
02:51PM 36.2406 -113.8428 82° East 430 495 24,900 1,620 Climbing Los Angeles Center
02:52PM 36.2583 -113.6933 82° East 437 503 26,400 1,380 Climbing Los Angeles Center
02:53PM 36.2758 -113.5419 82° East 444 511 27,800 1,020 Climbing Los Angeles Center
02:54PM 36.2903 -113.4183 82° East 450 518 28,600 960 Climbing Los Angeles Center
02:55PM 36.3197 -113.2075 80° East 468 539 29,900 1,020 Climbing Los Angeles Center
02:56PM 36.3592 -113.0892 67° East 468 539 30,800 1,020 Climbing Los Angeles Center
02:57PM 36.4258 -112.9150 65° Northeast 467 537 32,000 1,080 Climbing Los Angeles Center
02:58PM 36.4811 -112.7675 65° Northeast 472 543 33,100 960 Climbing Los Angeles Center
02:59PM 36.5336 -112.6222 66° East 467 537 34,000 960 Climbing Los Angeles Center
03:00PM 36.5975 -112.4492 65° Northeast 462 532 35,200 960 Climbing Los Angeles Center
03:01PM 36.6500 -112.3061 65° Northeast 459 528 36,100 540 Climbing Los Angeles Center
03:03PM 36.7047 -112.1283 69° East 462 532 36,500 300 Climbing Los Angeles Center
03:04PM 36.7522 -111.9778 68° East 469 540 36,900 240 Climbing Los Angeles Center
03:05PM 36.7992 -111.8272 69° East 470 541 37,000  Climbing Los Angeles Center
03:06PM 36.8553 -111.6442 69° East 473 544 37,000  Level Los Angeles Center
03:07PM 36.9022 -111.4914 69° East 474 545 37,000  Level Los Angeles Center
03:08PM 36.9478 -111.3378 70° East 474 545 37,000  Level Los Angeles Center
03:09PM 36.9953 -111.1842 69° East 475 547 37,000  Level Los Angeles Center
03:10PM 37.0492 -111.0014 70° East 472 543 37,000  Level Denver Center
03:11PM 37.0961 -110.8481 69° East 473 544 37,000  Level Denver Center
03:12PM 37.1503 -110.6653 70° East 469 540 37,000  Level Denver Center
03:13PM 37.1953 -110.5119 70° East 470 541 37,000  Level Denver Center
03:14PM 37.2400 -110.3603 70° East 465 535 37,000  Level Denver Center
03:15PM 37.2842 -110.2100 70° East 462 532 37,000  Level Denver Center
03:16PM 37.3331 -110.0378 70° East 461 531 37,000  Level Denver Center
03:17PM 37.3750 -109.8933 70° East 460 529 37,000  Level Denver Center
03:18PM 37.4169 -109.7492 70° East 458 527 37,000  Level Denver Center
03:19PM 37.4644 -109.5828 70° East 452 520 37,000  Level Denver Center
03:20PM 37.5053 -109.4400 70° East 452 520 37,000  Level Denver Center
03:21PM 37.5392 -109.3197 70° East 455 524 37,000  Level Denver Center
03:22PM 37.5931 -109.1258 71° East 458 527 37,000  Level Denver Center
03:24PM 37.6406 -108.9553 71° East 460 529 37,100  Climbing Denver Center
03:25PM 37.6808 -108.8078 71° East 464 534 37,000 -60 Descending Denver Center
03:26PM 37.7211 -108.6603 71° East 464 534 37,000  Level Denver Center
03:27PM 37.7681 -108.4933 70° East 455 524 37,000  Level Denver Center
03:28PM 37.8069 -108.3503 71° East 451 519 37,000  Level Denver Center
03:29PM 37.8589 -108.1569 71° East 452 520 37,000  Level Denver Center
03:30PM 37.8967 -108.0144 71° East 448 516 37,000 -60 Level Denver Center
03:31PM 37.9425 -107.8447 71° East 453 521 36,900  Descending Denver Center
03:32PM 37.9814 -107.7003 71° East 453 521 37,000  Climbing Denver Center
03:33PM 38.0269 -107.5264 72° East 463 533 37,000  Level Denver Center
03:34PM 38.0664 -107.3767 71° East 467 537 37,100  Climbing Denver Center
03:35PM 38.1086 -107.2139 72° East 467 537 37,000 -60 Descending Denver Center
03:36PM 38.1508 -107.0508 72° East 462 532 37,000 -60 Level Denver Center
03:37PM 38.1903 -106.8956 72° East 462 532 36,900  Descending Denver Center
03:38PM 38.2292 -106.7442 72° East 459 528 37,000  Climbing Denver Center
03:39PM 38.2733 -106.5719 72° East 460 529 37,000  Level Denver Center
03:40PM 38.3083 -106.4325 72° East 461 531 37,000  Level Denver Center
03:41PM 38.3461 -106.2767 73° East 462 532 37,000  Level Denver Center
03:42PM 38.3911 -106.1006 72° East 463 533 37,100  Climbing Denver Center
03:43PM 38.4339 -105.9253 73° East 462 532 37,000 -60 Descending Denver Center
03:44PM 38.4714 -105.7750 72° East 463 533 37,000  Level Denver Center
03:45PM 38.5081 -105.6261 72° East 461 531 37,000  Level Denver Center
03:46PM 38.5500 -105.4511 73° East 461 531 37,000  Level Denver Center
03:47PM 38.5869 -105.2994 73° East 463 533 37,000  Level Denver Center
03:48PM 38.6294 -105.1225 73° East 465 535 37,000  Level Denver Center
03:49PM 38.6664 -104.9689 73° East 468 539 37,000  Level Denver Center
03:51PM 38.7069 -104.7917 74° East 464 534 37,000  Level Denver Center
03:52PM 38.7433 -104.6378 73° East 469 540 37,000  Level Denver Center
03:53PM 38.7806 -104.4817 73° East 474 545 37,000  Level Denver Center
03:54PM 38.8214 -104.2989 74° East 475 547 37,000  Level Denver Center
03:55PM 38.8578 -104.1414 73° East 478 550 37,000  Level Denver Center
03:56PM 38.8989 -103.9581 74° East 478 550 37,100  Climbing Denver Center
03:57PM 38.9350 -103.8028 73° East 474 545 37,100 -60 Level Denver Center
03:58PM 38.9750 -103.6231 74° East 468 539 37,000 -60 Descending Denver Center
03:59PM 39.0081 -103.4722 74° East 459 528 37,000  Level Denver Center
04:00PM 39.0469 -103.2972 74° East 456 525 37,000  Level Denver Center
04:01PM 39.0814 -103.1447 74° East 462 532 37,000  Level Denver Center
04:02PM 39.1203 -102.9622 75° East 472 543 37,000  Level Denver Center
04:03PM 39.1542 -102.8061 74° East 472 543 37,000  Level Denver Center
04:04PM 39.1917 -102.6306 75° East 467 537 37,000  Level Denver Center
04:05PM 39.2236 -102.4789 75° East 459 528 37,000  Level Denver Center
04:06PM 39.2619 -102.2981 75° East 467 537 37,000  Level Denver Center
04:07PM 39.2956 -102.1419 74° East 470 541 37,000  Level Denver Center
04:08PM 39.3306 -101.9686 75° East 474 545 37,100  Climbing Denver Center
04:09PM 39.3633 -101.8119 75° East 474 545 37,000 -60 Descending Denver Center
04:10PM 39.4081 -101.6344 72° East 471 542 37,000  Level Denver Center
04:11PM 39.4619 -101.4894 64° Northeast 468 539 37,000  Level Denver Center
04:12PM 39.5244 -101.3214 64° Northeast 466 536 37,000  Level Denver Center
04:13PM 39.5778 -101.1756 65° Northeast 468 539 37,000  Level Denver Center
04:14PM 39.6403 -101.0028 65° Northeast 475 547 37,000  Level Denver Center
04:15PM 39.6942 -100.8569 64° Northeast 471 542 37,000  Level Denver Center
04:16PM 39.7569 -100.6808 65° Northeast 481 554 37,000  Level Denver Center
04:17PM 39.8106 -100.5314 65° Northeast 480 552 37,000  Level Denver Center
04:18PM 39.8742 -100.3564 65° Northeast 481 554 37,000  Level Denver Center
04:19PM 39.9239 -100.2156 65° Northeast 480 552 37,000  Level Denver Center
04:20PM 39.9789 -100.0581 65° Northeast 479 551 37,000  Level Denver Center
04:21PM 40.0556 -99.8744 61° Northeast 481 554 37,000  Level Denver Center
04:23PM 40.1236 -99.7267 59° Northeast 477 549 37,000  Level Denver Center
04:24PM 40.1914 -99.5772 59° Northeast 477 549 37,000  Level Denver Center
04:25PM 40.2606 -99.4264 59° Northeast 482 555 37,000  Level Denver Center
04:26PM 40.3283 -99.2758 59° Northeast 483 556 37,000  Level Denver Center
04:27PM 40.3961 -99.1247 59° Northeast 482 555 37,000  Level Denver Center
04:27PM 40.4372 -99.0344 59° Northeast 484 557 37,000  Level Minneapolis Center
04:28PM 40.5044 -98.8822 60° Northeast 484 557 37,000  Level Minneapolis Center
04:29PM 40.5839 -98.6994 60° Northeast 482 555 37,000  Level Minneapolis Center
04:30PM 40.6517 -98.5481 59° Northeast 483 556 37,000  Level Minneapolis Center
04:31PM 40.7181 -98.3947 60° Northeast 484 557 37,000  Level Minneapolis Center
04:32PM 40.7853 -98.2392 60° Northeast 487 560 37,000  Level Minneapolis Center
04:33PM 40.8533 -98.0808 60° Northeast 493 567 37,100  Climbing Minneapolis Center
04:34PM 40.9364 -97.8894 60° Northeast 501 577 37,000 -60 Descending Minneapolis Center
04:36PM 41.0031 -97.7339 60° Northeast 494 568 37,000  Level Minneapolis Center
04:37PM 41.0686 -97.5792 61° Northeast 486 559 37,000  Level Minneapolis Center
04:38PM 41.1339 -97.4250 61° Northeast 483 556 37,000  Level Minneapolis Center
04:39PM 41.2008 -97.2650 61° Northeast 483 556 37,000  Level Minneapolis Center
04:40PM 41.2672 -97.1089 60° Northeast 485 558 37,000  Level Minneapolis Center
04:42PM 41.3810 -96.8342 61° Northeast  Level FlightAware Approximate
04:44PM 41.5417 -96.4469 62° Northeast 482 555 37,000  Level Minneapolis Center
04:45PM 41.6025 -96.2981 61° Northeast 481 554 37,000  Level Minneapolis Center
04:46PM 41.6700 -96.1306 69° East 478 550 37,000  Level Minneapolis Center
04:47PM 41.6782 -96.0324 69° East  Level Estimated
04:47PM 41.7344 -95.9706 62° Northeast 482 555 37,000  Level Minneapolis Center
04:48PM 41.7981 -95.8100 62° Northeast 484 557 37,000  Level Minneapolis Center
04:49PM 41.8027 -95.7957 62° Northeast  Level FlightAware Approximate
04:49PM 41.8636 -95.6506 61° Northeast 486 559 37,000  Level Minneapolis Center
04:50PM 41.9264 -95.4861 63° Northeast 490 564 37,000  Level Minneapolis Center
04:51PM 42.0047 -95.2908 62° Northeast 495 570 37,000  Level Minneapolis Center
04:52PM 42.0683 -95.1261 62° Northeast 496 571 37,100  Climbing Minneapolis Center
04:53PM 42.1317 -94.9636 62° Northeast 491 565 37,000 -60 Descending Minneapolis Center
04:54PM 41.9864 -94.9209 69° East  Level Estimated
04:54PM 42.1947 -94.8008 62° Northeast 489 563 37,000  Level Minneapolis Center
04:55PM 42.2706 -94.6061 62° Northeast 488 562 37,000  Level Minneapolis Center
04:56PM 42.3314 -94.4411 63° Northeast 489 563 37,000  Level Minneapolis Center
04:57PM 42.3956 -94.2767 62° Northeast 493 567 37,000  Level Minneapolis Center
04:58PM 42.4706 -94.0775 63° Northeast 493 567 37,000  Level Minneapolis Center
05:00PM 42.5317 -93.9144 63° Northeast 490 564 37,000  Level Minneapolis Center
05:01PM 42.5969 -93.7558 61° Northeast 487 560 37,000  Level Minneapolis Center
05:02PM 42.6594 -93.5981 62° Northeast 481 554 37,000  Level Minneapolis Center
05:03PM 42.7225 -93.4411 61° Northeast 478 550 37,000  Level Minneapolis Center
05:04PM 42.7969 -93.2503 62° Northeast 479 551 37,000  Level Minneapolis Center
05:05PM 42.8589 -93.0908 62° Northeast 479 551 37,000  Level Minneapolis Center
05:06PM 42.9342 -92.8975 62° Northeast 482 555 37,000  Level Minneapolis Center
05:07PM 42.9961 -92.7356 62° Northeast 483 556 37,000  Level Minneapolis Center
05:08PM 43.0603 -92.5742 61° Northeast 483 556 37,000  Level Minneapolis Center
05:09PM 43.1331 -92.3806 63° Northeast 482 555 37,000  Level Minneapolis Center
05:10PM 43.1947 -92.2194 62° Northeast 479 551 37,000  Level Minneapolis Center
05:11PM 43.2564 -92.0567 62° Northeast 481 554 37,000  Level Minneapolis Center
05:12PM 43.3306 -91.8586 63° Northeast 484 557 37,000  Level Minneapolis Center
05:13PM 43.3914 -91.6958 63° Northeast 483 556 37,000  Level Minneapolis Center
05:14PM 43.4511 -91.5347 63° Northeast 478 550 37,000  Level Minneapolis Center
05:16PM 43.5347 -91.3061 63° Northeast 479 551 37,000  Level Minneapolis Center
05:16PM 43.5586 -91.2428 62° Northeast 476 548 37,000  Level Minneapolis Center
05:17PM 43.6186 -91.0797 63° Northeast 477 549 37,000  Level Minneapolis Center
05:18PM 43.6769 -90.9164 64° Northeast 477 549 37,000  Level Minneapolis Center
05:19PM 43.7350 -90.7544 64° Northeast 474 545 37,000  Level Minneapolis Center
05:20PM 43.8031 -90.5647 64° Northeast 475 547 37,000  Level Minneapolis Center
05:21PM 43.8606 -90.4025 64° Northeast 471 542 37,000  Level Minneapolis Center
05:22PM 43.9192 -90.2386 64° Northeast 473 544 37,000  Level Minneapolis Center
05:23PM 43.9656 -90.1017 65° Northeast 473 544 37,000  Level Minneapolis Center
05:24PM 44.0308 -89.9083 65° Northeast 474 545 37,000  Level Minneapolis Center
05:25PM 44.0906 -89.7122 67° East 472 543 37,000  Level Minneapolis Center
05:26PM 44.1433 -89.5436 66° East 474 545 37,000  Level Minneapolis Center
05:27PM 44.1958 -89.3758 66° East 471 542 37,000  Level Minneapolis Center
05:29PM 44.2481 -89.2053 67° East 475 547 37,000  Level Minneapolis Center
05:30PM 44.3100 -89.0056 67° East 479 551 37,000  Level Minneapolis Center
05:31PM 44.3711 -88.8039 67° East 480 552 37,000  Level Minneapolis Center
05:32PM 44.4231 -88.6336 67° East 477 549 37,000  Level Minneapolis Center
05:33PM 44.4747 -88.4622 67° East 477 549 37,000  Level Minneapolis Center
05:34PM 44.5264 -88.2903 67° East 479 551 37,000  Level Minneapolis Center
05:35PM 44.5747 -88.1156 69° East 480 552 37,000  Level Minneapolis Center
05:36PM 44.6183 -87.9414 71° East 474 545 37,000  Level Minneapolis Center
05:37PM 44.6608 -87.7628 71° East 471 542 37,000 -60 Level Minneapolis Center
05:38PM 44.7047 -87.5889 70° East 472 543 36,900 -60 Descending Minneapolis Center
05:39PM 44.7386 -87.4508 71° East 469 540 36,900  Level Minneapolis Center
05:40PM 44.7975 -87.2061 71° East 472 543 37,000  Climbing Minneapolis Center
05:41PM 44.8397 -87.0331 71° East 470 541 37,000 -60 Level Minneapolis Center
05:42PM 44.8814 -86.8592 71° East 470 541 36,900  Descending Minneapolis Center
05:43PM 44.9253 -86.6719 72° East 471 542 37,000  Climbing Minneapolis Center
05:44PM 44.9669 -86.4978 71° East 470 541 37,000  Level Minneapolis Center
05:45PM 45.0078 -86.3228 72° East 469 540 37,000  Level Minneapolis Center
05:46PM 45.0567 -86.1125 72° East 470 541 37,000  Level Minneapolis Center
05:47PM 45.0886 -85.9717 72° East 471 542 37,000  Level Minneapolis Center
05:48PM 45.1367 -85.7622 72° East 468 539 37,000 -60 Level Minneapolis Center
05:50PM 45.1836 -85.5564 72° East 462 532 36,900 -60 Descending Minneapolis Center
05:51PM 45.2156 -85.4181 72° East 461 531 36,900  Level Minneapolis Center
05:52PM 45.2614 -85.2103 73° East 461 531 36,900  Level Minneapolis Center
05:53PM 45.2997 -85.0367 73° East 461 531 36,900  Level Minneapolis Center
05:54PM 45.3375 -84.8617 73° East 463 533 37,000  Climbing Minneapolis Center
05:55PM 45.3761 -84.6881 72° East 462 532 37,000  Level Minneapolis Center
05:56PM 45.4214 -84.4778 73° East 462 532 37,000 -60 Level Minneapolis Center
05:57PM 45.4592 -84.3008 73° East 466 536 36,900 -60 Descending Minneapolis Center
05:58PM 45.4958 -84.1233 74° East 467 537 36,900 60 Level Minneapolis Center
05:58PM 45.5000 -84.0333 86° East 470 541 37,000 60 Climbing Toronto Center
05:59PM 45.5333 -83.8667 74° East 470 541 37,000  Level Toronto Center
06:00PM 45.5700 -83.7686 62° Northeast 468 539 37,000 -60 Level Minneapolis Center
06:01PM 45.6069 -83.5908 73° East 467 537 36,900  Descending Minneapolis Center
06:01PM 45.6000 -83.5167 98° East 470 541 37,000 60 Climbing Toronto Center
06:02PM 45.6333 -83.3333 75° East 470 541 37,000  Level Toronto Center
06:03PM 45.6833 -83.1333 70° East 470 541 37,000  Level Toronto Center
06:04PM 45.7167 -82.9500 75° East 470 541 37,000  Level Toronto Center
06:05PM 45.7500 -82.7833 74° East 470 541 37,000  Level Toronto Center
06:06PM 45.8000 -82.6000 69° East 470 541 37,000  Level Toronto Center
06:07PM 45.8167 -82.4333 82° East 470 541 37,000  Level Toronto Center
06:08PM 45.8500 -82.2333 76° East 470 541 37,000  Level Toronto Center
06:09PM 45.8833 -82.0500 75° East 470 541 37,000  Level Toronto Center
06:10PM 45.9333 -81.8833 67° East 470 541 37,000  Level Toronto Center
06:11PM 45.9667 -81.7000 75° East 470 541 37,000  Level Toronto Center
06:12PM 45.9833 -81.5000 83° East 470 541 37,000  Level Toronto Center
06:13PM 46.0167 -81.3333 74° East 480 552 37,000  Level Toronto Center
06:14PM 46.0500 -81.1500 75° East 480 552 37,000  Level Toronto Center
06:15PM 46.0500 -80.9500 90° East 470 541 37,000  Level Toronto Center
06:16PM 46.0667 -80.7667 82° East 470 541 37,000  Level Toronto Center
06:17PM 46.0667 -80.5667 90° East 470 541 37,000  Level Toronto Center
06:18PM 46.0833 -80.4000 82° East 470 541 37,000  Level Toronto Center
06:19PM 46.0833 -80.2167 90° East 470 541 37,000  Level Toronto Center
06:20PM 46.0833 -80.0167 90° East 460 529 37,000  Level Toronto Center
06:21PM 46.1000 -79.8167 83° East 460 529 37,000  Level Toronto Center
06:22PM 46.1000 -79.6500 90° East 460 529 37,000  Level Toronto Center
06:23PM 46.1000 -79.4667 90° East 460 529 37,000  Level Toronto Center
06:24PM 46.1167 -79.2667 83° East 460 529 37,000  Level Toronto Center
06:25PM 46.1167 -79.1000 90° East 460 529 37,000  Level Toronto Center
06:26PM 46.1167 -78.9167 90° East 460 529 37,000  Level Toronto Center
06:27PM 46.1333 -78.7167 83° East 460 529 37,000  Level Toronto Center
06:28PM 46.1333 -78.5500 90° East 460 529 37,000  Level Toronto Center
06:29PM 46.1167 -78.3500 97° East 460 529 37,000  Level Toronto Center
06:30PM 46.1167 -78.1667 90° East 460 529 37,000  Level Toronto Center
06:31PM 46.1333 -77.9667 83° East 460 529 37,000  Level Toronto Center
06:32PM 46.1333 -77.8000 90° East 460 529 37,000  Level Toronto Center
06:33PM 46.1333 -77.6333 90° East 440 506 37,000  Level Toronto Center
06:34PM 46.1500 -77.4667 82° East 420 483 37,000  Level Toronto Center
06:35PM 46.1333 -77.3000 98° East 420 483 37,000  Level Toronto Center
06:36PM 46.1333 -77.1333 90° East 410 472 37,000  Level Toronto Center
06:37PM 46.1333 -76.9833 90° East 410 472 37,000  Level Toronto Center
06:38PM 46.1500 -76.8000 82° East 410 472 37,000  Level Toronto Center
06:39PM 46.1500 -76.6500 90° East 410 472 37,000 -480 Level Toronto Center
06:40PM 46.1333 -76.4833 98° East 410 472 36,100 -960 Descending Toronto Center
06:41PM 46.1333 -76.3167 90° East 400 460 35,100 -960 Descending Toronto Center
06:42PM 46.1500 -76.1667 81° East 400 460 34,200 -1,140 Descending Toronto Center
06:43PM 46.1333 -76.0000 98° East 390 449 32,900 -1,500 Descending Toronto Center
06:44PM 46.1333 -75.8500 90° East 370 426 31,300 -1,620 Descending Toronto Center
06:45PM 46.1333 -75.7167 90° East 370 426 29,700 -1,500 Descending Toronto Center
06:46PM 46.1500 -75.5667 81° East 350 403 28,300 -1,500 Descending Toronto Center
06:47PM 46.1333 -75.4667 103° East 340 391 26,600 -1,440 Descending Montreal Center
06:48PM 46.1167 -75.3167 99° East 330 380 25,300 -1,260 Descending Montreal Center
06:49PM 46.1167 -75.2000 90° East 320 368 24,100 -1,260 Descending Montreal Center
06:50PM 46.1000 -75.0667 100° East 300 345 22,800 -1,440 Descending Montreal Center
06:51PM 46.0833 -74.9500 102° East 290 334 21,300 -1,380 Descending Montreal Center
06:52PM 46.1333 -74.9333 13° North 270 311 20,100 -720 Descending Montreal Center
06:53PM 46.1500 -75.0167 286° West 260 299 19,900 -840 Descending Montreal Center
06:54PM 46.0667 -75.0000 172° South 270 311 18,500 -1,080 Descending Montreal Center
06:55PM 46.0500 -74.9000 103° East 270 311 17,800 -900 Descending Montreal Center
06:56PM 46.0167 -74.7833 112° Southeast 280 322 16,800 -1,020 Descending Montreal Center
06:57PM 46.0000 -74.6833 103° East 260 299 15,800 -1,020 Descending Montreal Center
06:58PM 45.9667 -74.6000 120° Southeast 250 288 14,800 -960 Descending Montreal Center
06:59PM 45.9500 -74.5000 103° East 240 276 13,900 -1,020 Descending Montreal Center
07:00PM 45.9333 -74.4333 110° East 240 276 12,800 -1,080 Descending Montreal Center
07:01PM 45.9000 -74.3333 116° Southeast 240 276 11,800 -1,020 Descending Montreal Center
07:02PM 45.8500 -74.2667 137° Southeast 250 288 10,800 -960 Descending Montreal Center
07:03PM 45.8000 -74.2167 145° Southeast 240 276 9,900 -1,020 Descending Montreal Center
07:04PM 45.7500 -74.1500 137° Southeast 240 276 8,800 -960 Descending Montreal Center
07:05PM 45.7000 -74.0667 131° Southeast 240 276 8,000 -900 Descending Montreal Center
07:06PM 45.6500 -74.0333 155° Southeast 230 265 7,100 -960 Descending Montreal Center
07:07PM 45.5833 -73.9833 152° Southeast 230 265 6,100 -600 Descending Montreal Center
07:08PM 45.5333 -73.9333 145° Southeast 230 265 6,000 -300 Descending Montreal Center
07:09PM 45.4667 -73.8833 152° Southeast 220 253 5,600 -420 Descending Montreal Center
07:10PM 45.4167 -73.9333 215° Southwest 220 253 5,200 -360 Descending Montreal Center
07:11PM 45.3833 -74.0167 240° Southwest 210 242 4,900 -420 Descending Montreal Center
07:12PM 45.3333 -74.0667 215° Southwest 210 242 4,400 -480 Descending Montreal Center
07:13PM 45.3000 -74.1167 227° Southwest 210 242 4,000 -240 Descending Montreal Center
07:14PM 45.2500 -74.1333 193° South 190 219 4,000  Level Montreal Center
07:15PM 45.2500 -74.0667 90° East 180 207 4,000  Level Montreal Center
07:16PM 45.2667 -74.0000 70° East 170 196 4,000  Level Montreal Center
07:17PM 45.3000 -73.9500 47° Northeast 170 196 4,000 -480 Level Montreal Center
07:18PM 45.3333 -73.9000 47° Northeast 170 196 3,100 -900 Descending Montreal Center
07:19PM 45.3667 -73.8667 35° Northeast 170 196 2,200 -900 Descending Montreal Center
07:20PM 45.4000 -73.8167 46° Northeast 160 184 1,400 -840 Descending Montreal Center